createdAt,value
2022-11-24T00:01:13.455Z,16.67
2022-11-24T00:03:15.350Z,17.05
2022-11-24T00:05:17.026Z,16.75
2022-11-24T00:07:18.678Z,18.33
2022-11-24T00:11:25.217Z,16.45
2022-11-24T00:13:27.319Z,18.15
2022-11-24T00:15:29.035Z,17.33
2022-11-24T00:19:32.101Z,17.35
2022-11-24T00:21:33.832Z,17.73
2022-11-24T00:23:36.424Z,17.80
2022-11-24T00:25:38.075Z,17.58
2022-11-24T00:29:42.579Z,17.00
2022-11-24T00:33:46.701Z,16.67
2022-11-24T00:35:54.556Z,17.13
2022-11-24T00:37:56.210Z,17.40
2022-11-24T00:41:59.385Z,17.55
2022-11-24T00:46:04.476Z,17.73
2022-11-24T00:48:06.468Z,18.63
2022-11-24T00:50:08.760Z,17.88
2022-11-24T00:52:10.479Z,18.15
2022-11-24T00:54:12.170Z,17.98
2022-11-24T00:58:15.745Z,17.17
2022-11-24T01:00:19.200Z,17.27
2022-11-24T01:02:20.854Z,17.85
2022-11-24T01:06:25.492Z,16.70
2022-11-24T01:08:27.125Z,16.08
2022-11-24T01:12:30.200Z,18.33
2022-11-24T01:16:35.670Z,18.85
2022-11-24T01:18:37.313Z,17.13
2022-11-24T01:20:38.958Z,19.95
2022-11-24T01:24:42.092Z,18.23
2022-11-24T01:28:47.357Z,18.55
2022-11-24T01:30:57.346Z,17.92
2022-11-24T01:33:00.478Z,18.88
2022-11-24T01:35:02.218Z,19.13
2022-11-24T01:39:05.337Z,18.20
2022-11-24T01:43:16.386Z,17.40
2022-11-24T01:45:32.425Z,20.95
2022-11-24T01:47:36.165Z,17.52
2022-11-24T01:49:44.525Z,18.38
2022-11-24T01:51:52.936Z,18.52
2022-11-24T01:53:59.132Z,18.98
2022-11-24T01:56:00.952Z,18.27
2022-11-24T01:58:06.565Z,18.52
2022-11-24T02:00:10.877Z,18.40
2022-11-24T02:02:13.373Z,19.10
2022-11-24T02:04:19.453Z,18.75
2022-11-24T02:06:25.434Z,18.35
2022-11-24T02:08:34.890Z,16.80
2022-11-24T02:10:37.457Z,18.70
2022-11-24T02:12:42.196Z,17.80
2022-11-24T02:14:44.690Z,17.83
2022-11-24T02:16:49.503Z,19.17
2022-11-24T02:18:51.580Z,16.60
2022-11-24T02:20:53.238Z,17.40
2022-11-24T02:25:06.757Z,16.15
2022-11-24T02:27:10.628Z,17.92
2022-11-24T02:29:14.159Z,15.77
2022-11-24T02:31:15.958Z,18.15
2022-11-24T02:33:19.282Z,18.05
2022-11-24T02:35:21.148Z,17.98
2022-11-24T02:37:22.864Z,18.65
2022-11-24T02:41:27.644Z,16.25
2022-11-24T02:43:35.219Z,17.45
2022-11-24T02:45:37.002Z,16.73
2022-11-24T02:47:38.646Z,17.70
2022-11-24T02:51:41.870Z,18.67
2022-11-24T02:53:43.596Z,17.30
2022-11-24T02:57:47.100Z,15.95
2022-11-24T02:59:50.159Z,15.88
2022-11-24T03:01:52.152Z,15.35
2022-11-24T03:03:53.846Z,17.33
2022-11-24T03:07:56.953Z,15.35
2022-11-24T03:09:58.670Z,16.30
2022-11-24T03:14:01.832Z,16.33
2022-11-24T03:18:09.437Z,17.02
2022-11-24T03:22:13.392Z,14.80
2022-11-24T03:24:15.035Z,18.08
2022-11-24T03:26:18.858Z,16.17
2022-11-24T03:28:20.531Z,16.30
2022-11-24T03:32:25.175Z,16.35
2022-11-24T03:34:26.770Z,16.75
2022-11-24T03:36:28.436Z,17.55
2022-11-24T03:40:31.583Z,16.25
2022-11-24T03:42:33.580Z,16.30
2022-11-24T03:44:35.438Z,15.73
2022-11-24T03:46:37.370Z,16.42
2022-11-24T03:48:40.494Z,16.10
2022-11-24T03:50:42.242Z,16.52
2022-11-24T03:52:43.921Z,16.08
2022-11-24T03:56:47.116Z,14.68
2022-11-24T04:00:51.426Z,15.10
2022-11-24T04:02:53.228Z,15.60
2022-11-24T04:04:56.264Z,14.93
2022-11-24T04:06:57.878Z,18.10
2022-11-24T04:09:00.208Z,18.73
2022-11-24T04:11:01.851Z,15.82
2022-11-24T04:15:06.310Z,14.75
2022-11-24T04:17:08.007Z,17.52
2022-11-24T04:21:12.608Z,15.48
2022-11-24T04:23:14.241Z,15.60
2022-11-24T04:25:15.984Z,14.88
2022-11-24T04:29:19.071Z,13.18
2022-11-24T04:31:20.777Z,13.32
2022-11-24T04:35:24.626Z,14.38
2022-11-24T04:37:27.763Z,13.77
2022-11-24T04:39:29.497Z,13.10
2022-11-24T04:43:37.732Z,12.85
2022-11-24T04:45:41.971Z,13.60
2022-11-24T04:47:43.606Z,16.75
2022-11-24T04:49:47.021Z,14.05
2022-11-24T04:51:48.807Z,15.30
2022-11-24T04:53:51.764Z,13.73
2022-11-24T04:55:53.357Z,13.85
2022-11-24T04:57:55.253Z,14.57
2022-11-24T04:59:56.859Z,15.60
2022-11-24T05:01:58.613Z,13.48
2022-11-24T05:04:00.535Z,13.48
2022-11-24T05:06:02.443Z,13.40
2022-11-24T05:08:04.618Z,14.07
2022-11-24T05:10:08.517Z,13.95
2022-11-24T05:12:10.091Z,14.43
2022-11-24T05:14:11.641Z,13.57
2022-11-24T05:16:13.394Z,14.38
2022-11-24T05:18:15.517Z,14.18
2022-11-24T05:20:17.420Z,13.38
2022-11-24T05:22:19.048Z,13.05
2022-11-24T05:26:23.320Z,13.45
2022-11-24T05:28:24.909Z,13.43
2022-11-24T05:30:26.614Z,13.68
2022-11-24T05:34:29.626Z,12.55
2022-11-24T05:38:33.240Z,12.35
2022-11-24T05:40:34.816Z,13.05
2022-11-24T05:42:40.890Z,12.07
2022-11-24T05:44:46.630Z,11.60
2022-11-24T05:46:48.349Z,13.07
2022-11-24T05:48:49.951Z,12.55
2022-11-24T05:50:54.321Z,21.75
2022-11-24T05:52:55.913Z,15.65
2022-11-24T05:54:57.451Z,16.55
2022-11-24T05:56:59.001Z,11.88
2022-11-24T05:59:08.191Z,13.07
2022-11-24T06:01:11.311Z,11.57
2022-11-24T06:03:13.132Z,12.75
2022-11-24T06:05:14.880Z,11.75
2022-11-24T06:09:18.423Z,12.88
2022-11-24T06:13:21.717Z,10.98
2022-11-24T06:15:24.819Z,11.27
2022-11-24T06:17:26.401Z,11.90
2022-11-24T06:19:28.033Z,10.98
2022-11-24T06:21:30.161Z,11.07
2022-11-24T06:23:31.838Z,11.40
2022-11-24T06:27:34.801Z,13.20
2022-11-24T06:29:36.414Z,11.25
2022-11-24T06:31:39.425Z,11.45
2022-11-24T06:33:41.130Z,11.90
2022-11-24T06:35:42.714Z,11.77
2022-11-24T06:37:44.295Z,12.15
2022-11-24T06:39:45.947Z,11.93
2022-11-24T06:41:50.280Z,12.80
2022-11-24T06:43:51.970Z,12.07
2022-11-24T06:47:56.863Z,12.68
2022-11-24T06:50:00.573Z,11.60
2022-11-24T06:52:02.405Z,11.77
2022-11-24T06:54:09.481Z,11.45
2022-11-24T06:56:16.311Z,12.52
2022-11-24T06:58:18.604Z,10.90
2022-11-24T07:00:20.530Z,11.88
2022-11-24T07:02:22.105Z,12.23
2022-11-24T07:04:25.033Z,12.25
2022-11-24T07:06:26.995Z,12.32
2022-11-24T07:08:28.612Z,14.02
2022-11-24T07:10:30.201Z,13.88
2022-11-24T07:12:34.282Z,12.48
2022-11-24T07:14:36.288Z,12.63
2022-11-24T07:16:40.314Z,12.52
2022-11-24T07:18:42.291Z,12.25
2022-11-24T07:20:45.582Z,12.20
2022-11-24T07:22:47.206Z,12.55
2022-11-24T07:24:48.787Z,12.02
2022-11-24T07:26:50.457Z,11.40
2022-11-24T07:30:53.642Z,12.50
2022-11-24T07:35:00.435Z,11.95
2022-11-24T07:39:06.372Z,10.48
2022-11-24T07:41:10.711Z,11.73
2022-11-24T07:43:15.864Z,11.90
2022-11-24T07:45:24.928Z,11.73
2022-11-24T07:47:26.505Z,11.23
2022-11-24T07:49:28.147Z,11.70
2022-11-24T07:53:33.092Z,10.77
2022-11-24T07:55:34.758Z,12.10
2022-11-24T07:57:36.596Z,11.80
2022-11-24T07:59:38.177Z,11.27
2022-11-24T08:01:40.144Z,12.07
2022-11-24T08:03:42.781Z,12.27
2022-11-24T08:06:16.056Z,11.68
2022-11-24T08:08:14.539Z,11.38
2022-11-24T08:10:18.018Z,11.27
2022-11-24T08:12:19.844Z,12.52
2022-11-24T08:14:21.656Z,12.30
2022-11-24T08:16:23.634Z,12.65
2022-11-24T08:18:25.265Z,14.48
2022-11-24T08:20:26.937Z,13.50
2022-11-24T08:24:29.836Z,11.57
2022-11-24T08:26:32.774Z,12.40
2022-11-24T08:28:34.975Z,11.77
2022-11-24T08:30:36.622Z,12.30
2022-11-24T08:34:39.485Z,10.68
2022-11-24T08:36:41.168Z,10.60
2022-11-24T08:40:44.494Z,11.93
2022-11-24T08:42:47.450Z,12.30
2022-11-24T08:44:49.109Z,11.45
2022-11-24T08:48:53.934Z,11.02
2022-11-24T08:50:55.881Z,11.07
2022-11-24T08:52:57.507Z,11.13
2022-11-24T08:57:00.707Z,10.65
2022-11-24T08:59:04.894Z,11.02
2022-11-24T09:01:08.661Z,12.25
2022-11-24T09:03:11.510Z,11.30
2022-11-24T09:05:49.672Z,11.68
2022-11-24T09:07:34.799Z,11.52
2022-11-24T09:11:37.870Z,11.80
2022-11-24T09:13:40.644Z,12.35
2022-11-24T09:15:43.679Z,12.73
2022-11-24T09:17:45.260Z,11.77
2022-11-24T09:19:46.787Z,13.25
2022-11-24T09:21:48.390Z,13.68
2022-11-24T09:25:52.157Z,12.15
2022-11-24T09:27:53.756Z,12.35
2022-11-24T09:32:02.119Z,12.68
2022-11-24T09:34:11.300Z,13.35
2022-11-24T09:36:13.658Z,12.68
2022-11-24T09:38:15.413Z,12.90
2022-11-24T09:40:18.035Z,12.82
2022-11-24T09:42:30.995Z,11.88
2022-11-24T09:44:49.351Z,12.75
2022-11-24T09:47:00.617Z,12.65
2022-11-24T09:49:06.627Z,13.20
2022-11-24T09:51:12.461Z,13.02
2022-11-24T09:53:20.172Z,13.50
2022-11-24T09:55:29.504Z,14.93
2022-11-24T09:57:37.440Z,12.65
2022-11-24T09:59:41.084Z,12.65
2022-11-24T10:01:44.424Z,12.82
2022-11-24T10:03:48.676Z,11.63
2022-11-24T10:05:53.273Z,13.10
2022-11-24T10:08:11.624Z,12.13
2022-11-24T10:10:24.331Z,11.82
2022-11-24T10:12:41.194Z,12.63
2022-11-24T10:15:07.679Z,11.70
2022-11-24T10:17:23.974Z,11.48
2022-11-24T10:19:40.131Z,11.48
2022-11-24T10:22:05.138Z,12.23
2022-11-24T10:24:39.182Z,12.35
2022-11-24T10:26:47.506Z,12.52
2022-11-24T10:28:53.412Z,12.27
2022-11-24T10:31:11.540Z,12.07
2022-11-24T10:33:24.254Z,12.25
2022-11-24T10:35:36.221Z,12.13
2022-11-24T10:37:45.698Z,11.82
2022-11-24T10:40:00.016Z,12.25
2022-11-24T10:42:10.811Z,11.30
2022-11-24T10:44:13.260Z,12.60
2022-11-24T10:46:19.493Z,11.02
2022-11-24T10:48:26.006Z,11.15
2022-11-24T10:50:31.378Z,10.60
2022-11-24T10:52:40.471Z,12.45
2022-11-24T10:54:56.410Z,10.68
2022-11-24T10:56:57.989Z,11.85
2022-11-24T11:01:30.501Z,12.02
2022-11-24T11:03:33.038Z,12.35
2022-11-24T11:05:39.414Z,11.10
2022-11-24T11:07:41.012Z,12.48
2022-11-24T11:09:42.726Z,11.80
2022-11-24T11:11:46.634Z,11.95
2022-11-24T11:13:58.234Z,11.45
2022-11-24T11:16:19.126Z,11.98
2022-11-24T11:18:21.588Z,11.15
2022-11-24T11:20:28.768Z,12.23
2022-11-24T11:22:32.774Z,12.88
2022-11-24T11:24:34.373Z,11.88
2022-11-24T11:28:39.705Z,11.73
2022-11-24T11:35:25.931Z,12.50
2022-11-24T11:37:30.872Z,12.32
2022-11-24T11:39:35.248Z,12.40
2022-11-24T11:41:42.106Z,12.38
2022-11-24T11:43:47.891Z,13.02
2022-11-24T11:45:59.329Z,11.63
2022-11-24T11:48:17.676Z,13.05
2022-11-24T11:50:25.440Z,12.80
2022-11-24T11:53:00.028Z,12.38
2022-11-24T11:55:31.842Z,12.13
2022-11-24T11:57:38.796Z,12.73
2022-11-24T12:00:12.704Z,12.43
2022-11-24T12:02:53.290Z,10.95
2022-11-24T12:05:00.046Z,11.95
2022-11-24T12:07:43.945Z,12.32
2022-11-24T12:09:57.778Z,11.77
2022-11-24T12:12:15.500Z,11.50
2022-11-24T12:14:29.467Z,12.23
2022-11-24T12:16:44.043Z,11.93
2022-11-24T12:18:58.243Z,11.57
2022-11-24T12:21:09.039Z,11.18
2022-11-24T12:23:22.097Z,12.15
2022-11-24T12:25:29.212Z,11.73
2022-11-24T12:27:41.850Z,13.82
2022-11-24T12:29:56.982Z,12.15
2022-11-24T12:32:11.472Z,11.70
2022-11-24T12:34:29.228Z,13.20
2022-11-24T12:36:44.538Z,12.15
2022-11-24T12:38:56.977Z,12.13
2022-11-24T12:43:40.337Z,11.98
2022-11-24T12:45:49.917Z,11.82
2022-11-24T12:48:26.907Z,10.55
2022-11-24T12:50:33.018Z,11.93
2022-11-24T12:52:40.156Z,11.93
2022-11-24T12:54:41.758Z,11.10
2022-11-24T12:58:54.425Z,11.48
2022-11-24T13:01:11.679Z,13.45
2022-11-24T13:03:30.677Z,11.57
2022-11-24T13:05:41.215Z,12.40
2022-11-24T13:07:47.487Z,11.45
2022-11-24T13:10:53.993Z,13.00
2022-11-24T13:12:56.481Z,12.35
2022-11-24T13:14:58.314Z,11.25
2022-11-24T13:19:24.885Z,12.75
2022-11-24T13:21:50.357Z,11.73
2022-11-24T13:23:56.501Z,12.20
2022-11-24T13:26:27.662Z,12.57
2022-11-24T13:29:09.243Z,12.25
2022-11-24T13:31:22.723Z,12.20
2022-11-24T13:33:30.481Z,12.68
2022-11-24T13:35:32.107Z,11.48
2022-11-24T13:37:49.204Z,12.35
2022-11-24T13:39:53.186Z,11.90
2022-11-24T13:42:03.585Z,11.32
2022-11-24T13:44:23.215Z,11.75
2022-11-24T13:47:04.873Z,11.25
2022-11-24T13:49:13.919Z,11.27
2022-11-24T13:53:31.419Z,12.52
2022-11-24T13:55:36.445Z,12.65
2022-11-24T13:57:39.586Z,11.32
2022-11-24T13:59:41.820Z,11.65
2022-11-24T14:01:44.665Z,10.65
2022-11-24T14:04:29.787Z,10.90
2022-11-24T14:06:29.595Z,12.95
2022-11-24T14:08:37.520Z,11.60
2022-11-24T14:12:42.628Z,11.93
2022-11-24T14:16:46.606Z,11.52
2022-11-24T14:18:49.692Z,12.43
2022-11-24T14:20:51.300Z,12.27
2022-11-24T14:22:53.639Z,12.13
2022-11-24T14:24:58.148Z,11.68
2022-11-24T14:27:01.098Z,12.00
2022-11-24T14:29:07.344Z,11.45
2022-11-24T14:31:16.454Z,11.80
2022-11-24T14:33:19.746Z,12.00
2022-11-24T14:35:23.548Z,13.73
2022-11-24T14:37:25.169Z,12.82
2022-11-24T14:41:31.872Z,11.75
2022-11-24T14:43:33.603Z,11.48
2022-11-24T14:45:35.532Z,11.82
2022-11-24T14:47:44.642Z,12.02
2022-11-24T14:49:46.718Z,11.50
2022-11-24T14:51:55.469Z,12.55
2022-11-24T14:54:00.748Z,11.30
2022-11-24T14:56:23.315Z,12.70
2022-11-24T14:58:31.935Z,11.15
2022-11-24T15:00:33.869Z,11.48
2022-11-24T15:02:39.345Z,12.38
2022-11-24T15:05:02.671Z,12.60
2022-11-24T15:07:13.866Z,11.57
2022-11-24T15:09:28.313Z,11.95
2022-11-24T15:11:30.641Z,12.65
2022-11-24T15:13:36.522Z,12.88
2022-11-24T15:15:39.263Z,11.27
2022-11-24T15:17:47.582Z,12.27
2022-11-24T15:19:53.524Z,11.75
2022-11-24T15:21:55.156Z,11.15
2022-11-24T15:24:14.936Z,12.27
2022-11-24T15:26:28.831Z,11.00
2022-11-24T15:28:33.534Z,12.55
2022-11-24T15:30:36.398Z,11.65
2022-11-24T15:32:48.651Z,12.57
2022-11-24T15:34:50.154Z,11.48
2022-11-24T15:38:53.195Z,11.52
2022-11-24T15:43:01.940Z,13.25
2022-11-24T15:45:09.318Z,13.15
2022-11-24T15:47:10.878Z,13.85
2022-11-24T15:49:12.589Z,18.50
2022-11-24T15:51:14.486Z,15.50
2022-11-24T15:53:19.305Z,13.90
2022-11-24T15:55:22.202Z,14.75
2022-11-24T15:57:23.982Z,15.43
2022-11-24T15:59:25.509Z,14.70
2022-11-24T16:03:48.257Z,16.02
2022-11-24T16:05:53.964Z,13.98
2022-11-24T16:07:55.604Z,13.45
2022-11-24T16:09:57.197Z,14.23
2022-11-24T16:14:00.688Z,13.15
2022-11-24T16:16:02.350Z,15.57
2022-11-24T16:18:06.263Z,14.00
2022-11-24T16:20:08.768Z,13.57
2022-11-24T16:22:10.294Z,14.25
2022-11-24T16:26:13.399Z,13.93
2022-11-24T16:28:15.034Z,14.57
2022-11-24T16:30:16.916Z,13.60
2022-11-24T16:32:18.515Z,13.90
2022-11-24T16:34:21.510Z,15.57
2022-11-24T16:36:23.083Z,14.00
2022-11-24T16:38:24.794Z,14.70
2022-11-24T16:40:26.394Z,14.27
2022-11-24T16:42:28.384Z,13.38
2022-11-24T16:44:29.923Z,14.52
2022-11-24T16:48:35.919Z,14.38
2022-11-24T16:50:39.007Z,14.48
2022-11-24T16:52:40.572Z,13.65
2022-11-24T16:56:43.514Z,13.05
2022-11-24T16:58:45.074Z,13.40
2022-11-24T17:02:48.193Z,14.75
2022-11-24T17:04:49.840Z,13.60
2022-11-24T17:06:52.777Z,14.57
2022-11-24T17:08:55.229Z,13.80
2022-11-24T17:10:56.814Z,14.10
2022-11-24T17:12:58.351Z,13.38
2022-11-24T17:17:21.331Z,13.93
2022-11-24T17:19:22.970Z,14.25
2022-11-24T17:21:26.722Z,13.63
2022-11-24T17:23:29.668Z,14.90
2022-11-24T17:25:31.975Z,14.50
2022-11-24T17:27:33.608Z,16.02
2022-11-24T17:29:35.179Z,15.02
2022-11-24T17:31:36.780Z,13.63
2022-11-24T17:33:38.435Z,13.73
2022-11-24T17:35:39.944Z,13.70
2022-11-24T17:39:54.777Z,13.15
2022-11-24T17:42:07.736Z,13.32
2022-11-24T17:44:09.569Z,13.57
2022-11-24T17:46:11.493Z,14.88
2022-11-24T17:48:13.213Z,13.85
2022-11-24T17:50:14.872Z,13.68
2022-11-24T17:52:16.882Z,15.98
2022-11-24T17:56:41.994Z,14.57
2022-11-24T17:58:43.749Z,13.43
2022-11-24T18:00:45.469Z,15.70
2022-11-24T18:02:47.114Z,15.60
2022-11-24T18:04:49.051Z,15.63
2022-11-24T18:06:50.639Z,14.18
2022-11-24T18:08:53.392Z,13.20
2022-11-24T18:11:03.003Z,15.50
2022-11-24T18:13:06.232Z,14.93
2022-11-24T18:15:08.638Z,15.48
2022-11-24T18:17:10.302Z,16.92
2022-11-24T18:19:12.104Z,14.43
2022-11-24T18:21:16.350Z,14.02
2022-11-24T18:23:18.541Z,14.00
2022-11-24T18:25:20.174Z,14.15
2022-11-24T18:27:21.790Z,12.18
2022-11-24T18:29:24.732Z,14.80
2022-11-24T18:31:26.468Z,13.02
2022-11-24T18:33:28.033Z,16.60
2022-11-24T18:37:31.177Z,12.50
2022-11-24T18:39:32.822Z,13.07
2022-11-24T18:41:35.129Z,13.48
2022-11-24T18:43:36.833Z,14.50
2022-11-24T18:45:39.836Z,13.00
2022-11-24T18:47:41.465Z,12.25
2022-11-24T18:51:45.006Z,12.18
2022-11-24T18:53:50.629Z,12.93
2022-11-24T18:55:56.879Z,12.07
2022-11-24T18:57:58.401Z,12.50
2022-11-24T19:02:02.811Z,12.55
2022-11-24T19:04:04.494Z,11.90
2022-11-24T19:06:08.043Z,11.40
2022-11-24T19:08:09.606Z,12.25
2022-11-24T19:12:13.148Z,11.95
2022-11-24T19:14:17.489Z,13.13
2022-11-24T19:16:20.467Z,13.48
2022-11-24T19:18:23.513Z,12.15
2022-11-24T19:20:28.575Z,12.68
2022-11-24T19:22:30.073Z,13.77
2022-11-24T19:26:33.222Z,14.15
2022-11-24T19:28:34.885Z,14.35
2022-11-24T19:30:36.488Z,15.13
2022-11-24T19:34:40.804Z,14.13
2022-11-24T19:36:42.529Z,14.93
2022-11-24T19:38:49.533Z,14.27
2022-11-24T19:40:51.053Z,13.23
2022-11-24T19:42:53.127Z,14.82
2022-11-24T19:44:56.673Z,14.88
2022-11-24T19:46:58.510Z,12.85
2022-11-24T19:51:05.647Z,14.02
2022-11-24T19:53:07.257Z,13.85
2022-11-24T19:57:13.194Z,13.27
2022-11-24T20:01:17.915Z,12.25
2022-11-24T20:03:19.539Z,12.88
2022-11-24T20:07:24.197Z,12.38
2022-11-24T20:09:25.975Z,12.38
2022-11-24T20:11:28.527Z,12.20
2022-11-24T20:13:30.445Z,19.15
2022-11-24T20:15:33.574Z,13.82
2022-11-24T20:17:35.221Z,37.88
2022-11-24T20:19:36.799Z,22.38
2022-11-24T20:23:42.534Z,13.35
2022-11-24T20:25:44.062Z,20.25
2022-11-24T20:27:45.681Z,15.15
2022-11-24T20:29:47.295Z,15.00
2022-11-24T20:33:51.473Z,15.05
2022-11-24T20:37:54.593Z,12.82
2022-11-24T20:39:57.556Z,13.77
2022-11-24T20:41:59.061Z,14.85
2022-11-24T20:44:02.745Z,16.73
2022-11-24T20:46:05.853Z,16.40
2022-11-24T20:48:07.463Z,14.88
2022-11-24T20:52:11.528Z,13.95
2022-11-24T20:56:18.497Z,14.68
2022-11-24T20:58:20.021Z,14.13
2022-11-24T21:00:21.705Z,14.32
2022-11-24T21:02:23.418Z,14.80
2022-11-24T21:04:26.777Z,15.43
2022-11-24T21:06:28.754Z,14.85
2022-11-24T21:08:33.035Z,15.07
2022-11-24T21:10:34.587Z,13.82
2022-11-24T21:14:38.994Z,14.82
2022-11-24T21:16:41.898Z,14.82
2022-11-24T21:18:44.892Z,14.80
2022-11-24T21:20:46.652Z,13.60
2022-11-24T21:22:48.238Z,13.73
2022-11-24T21:24:49.773Z,12.63
2022-11-24T21:28:54.282Z,12.30
2022-11-24T21:30:55.867Z,14.77
2022-11-24T21:34:58.911Z,13.13
2022-11-24T21:39:03.375Z,12.75
2022-11-24T21:41:07.600Z,13.48
2022-11-24T21:43:09.141Z,13.50
2022-11-24T21:47:13.639Z,13.02
2022-11-24T21:51:18.138Z,12.32
2022-11-24T21:53:19.669Z,13.20
2022-11-24T21:57:22.547Z,10.23
2022-11-24T22:01:28.335Z,11.15
2022-11-24T22:03:29.995Z,13.45
2022-11-24T22:07:33.149Z,12.02
2022-11-24T22:09:34.723Z,11.50
2022-11-24T22:13:37.981Z,12.40
2022-11-24T22:15:39.524Z,11.80
2022-11-24T22:19:43.820Z,10.45
2022-11-24T22:23:50.303Z,11.90
2022-11-24T22:25:51.845Z,10.93
2022-11-24T22:29:59.148Z,10.57
2022-11-24T22:32:00.750Z,10.13
2022-11-24T22:34:04.784Z,11.65
2022-11-24T22:36:07.418Z,11.10
2022-11-24T22:38:08.939Z,11.00
2022-11-24T22:42:12.336Z,11.32
2022-11-24T22:44:13.872Z,12.05
2022-11-24T22:48:17.531Z,11.13
2022-11-24T22:52:21.864Z,11.38
2022-11-24T22:56:25.211Z,11.18
2022-11-24T22:58:26.798Z,12.45
2022-11-24T23:00:28.371Z,12.48
2022-11-24T23:04:31.304Z,12.32
2022-11-24T23:08:36.435Z,12.13
2022-11-24T23:10:38.124Z,11.10
2022-11-24T23:12:39.674Z,11.57
2022-11-24T23:16:43.069Z,11.02
2022-11-24T23:18:51.033Z,12.82
2022-11-24T23:20:55.216Z,19.52
2022-11-24T23:24:59.475Z,20.08
2022-11-24T23:29:02.788Z,13.82
2022-11-24T23:31:06.659Z,13.48
2022-11-24T23:33:08.195Z,13.43
2022-11-24T23:37:15.602Z,12.00
2022-11-24T23:41:21.450Z,12.88
2022-11-24T23:43:28.417Z,12.27
2022-11-24T23:45:30.024Z,11.02
2022-11-24T23:47:31.953Z,11.23
2022-11-24T23:49:33.589Z,10.02
2022-11-24T23:53:36.988Z,12.00
2022-11-24T23:55:39.899Z,11.13
2022-11-24T23:57:41.428Z,12.50
